This is the latest recevied weather packets stored in our database for station/object IU5JAE-13. If no packets are shown the sender has not sent any weather packets the latest 10 day(s).
| Time | Temp. | Humidity | Pressure | Rain* | Wind** | Luminosity | Snow |
|---|---|---|---|---|---|---|---|
| 1777850116 | 12.22° C | 52% | 1018.8 hPa | 0 mm | - | 0 W/m² | - |
| 1777849533 | 12.22° C | 53% | 1018.9 hPa | 0 mm | - | 0 W/m² | - |
| 1777848931 | 12.78° C | 51% | 1018.9 hPa | 0 mm | - | 0 W/m² | - |
| 1777848329 | 12.22° C | 52% | 1019 hPa | 0 mm | - | 0 W/m² | - |
| 1777847726 | 12.22° C | 55% | 1019 hPa | 0 mm | - | 0 W/m² | - |
| 1777847124 | 12.22° C | 56% | 1019 hPa | 0 mm | - | 0 W/m² | - |
| 1777846521 | 12.78° C | 53% | 1019.2 hPa | 0 mm | - | 0 W/m² | - |
| 1777845919 | 12.78° C | 51% | 1019.1 hPa | 0 mm | - | 0 W/m² | - |
| 1777845316 | 12.78° C | 52% | 1019 hPa | 0 mm | - | 0 W/m² | - |
| 1777844734 | 12.78° C | 51% | 1019.1 hPa | 0 mm | - | 0 W/m² | - |
| 1777844132 | 12.78° C | 52% | 1019.1 hPa | 0 mm | - | 0 W/m² | - |
| 1777843529 | 13.33° C | 52% | 1019 hPa | 0 mm | - | 0 W/m² | - |
| 1777842927 | 13.33° C | 52% | 1019 hPa | 0 mm | - | 0 W/m² | - |
| 1777842324 | 13.89° C | 48% | 1019 hPa | 0 mm | - | 0 W/m² | - |
| 1777841722 | 13.89° C | 47% | 1018.9 hPa | 0 mm | - | 0 W/m² | - |
| 1777841120 | 13.89° C | 48% | 1018.8 hPa | 0 mm | - | 0 W/m² | - |
| 1777840517 | 13.89° C | 47% | 1018.9 hPa | 0 mm | - | 0 W/m² | - |
| 1777839935 | 13.89° C | 47% | 1018.8 hPa | 0 mm | - | 0 W/m² | - |
| 1777839333 | 13.89° C | 49% | 1018.9 hPa | 0 mm | - | 0 W/m² | - |
| 1777838730 | 13.89° C | 47% | 1018.8 hPa | 0 mm | - | 0 W/m² | - |
| 1777838128 | 14.44° C | 48% | 1018.8 hPa | 0 mm | - | 0 W/m² | - |
| 1777837526 | 14.44° C | 46% | 1018.8 hPa | 0 mm | - | 0 W/m² | - |
| 1777836923 | 15° C | 45% | 1018.8 hPa | 0 mm | - | 0 W/m² | - |
| 1777836320 | 14.44° C | 47% | 1018.7 hPa | 0 mm | - | 0 W/m² | - |
| 1777835718 | 15° C | 46% | 1018.7 hPa | 0 mm | - | 0 W/m² | - |
* Rain latest hour (hover to see other rain measurements)
** Current wind speed in m/s (hover to see current wind gust speed)